Creek Data

    Home     View Charts     View Raw Data     Messages

ID Distance Battery Voltage Battery Current Internal Temp Internal Humidity External Temp Solar Input rssi snr Time Stamp Record
65347 15.0 3.86 -5 54 55 55 0 -77 7 02/04/2026 06:30 PM 48132
65346 15.0 3.80 -5 56 56 56 0.1 -76 8 02/04/2026 06:15 PM 48131
65345 15.0 3.80 -5 58 57 57 0.1 -77 8 02/04/2026 06:00 PM 48130
65344 15.0 3.86 -5 60 58 59 0.9 -76 8 02/04/2026 05:45 PM 48129
65343 15.0 3.77 -5 63 58 61 4.4 -77 7 02/04/2026 05:30 PM 48128
65342 15.0 3.89 6 67 57 63 4.5 -76 8 02/04/2026 05:15 PM 48127
65341 15.0 3.85 -6 71 56 65 4.5 -76 7 02/04/2026 05:00 PM 48126
65340 15.1 3.96 50 75 54 67 4.5 -76 7 02/04/2026 04:45 PM 48125
65339 15.1 3.85 0 80 51 69 5.1 -76 8 02/04/2026 04:30 PM 48124
65338 15.0 3.85 0 80 51 68 5.1 -75 7 02/04/2026 04:15 PM 48123
65337 15.0 3.85 0 83 49 68 5.1 -76 8 02/04/2026 04:00 PM 48122
65336 15.1 4.01 6 86 46 69 5.1 -75 7 02/04/2026 03:45 PM 48121
65335 15.1 3.85 0 83 48 68 5.1 -75 7 02/04/2026 03:30 PM 48120
65334 15.2 3.90 6 80 49 68 5.1 -75 8 02/04/2026 03:15 PM 48119
65333 15.2 3.84 6 81 49 68 5.1 -75 8 02/04/2026 03:00 PM 48118
65332 15.2 3.84 0 85 45 68 5.1 -75 8 02/04/2026 02:45 PM 48117
65331 15.2 3.84 0 84 44 66 5.1 -75 8 02/04/2026 02:30 PM 48116
65330 15.2 3.84 6 84 44 66 5.1 -75 8 02/04/2026 02:15 PM 48115
65329 15.2 3.89 6 83 43 66 5.1 -75 8 02/04/2026 02:00 PM 48114
65328 15.2 3.94 0 78 43 65 5.1 -76 8 02/04/2026 01:15 PM 48111
65327 15.2 3.84 0 76 43 63 5.1 -76 8 02/04/2026 01:00 PM 48110
65326 15.2 4.09 0 74 43 63 5.1 -76 8 02/04/2026 12:45 PM 48109
65325 15.2 3.84 0 72 43 62 5.1 -75 8 02/04/2026 12:30 PM 48108
65324 15.2 3.84 0 71 44 63 5.1 -74 9 02/04/2026 12:15 PM 48107
65323 15.2 3.85 6 70 43 61 5.1 -75 8 02/04/2026 12:00 PM 48106